Time;durP1;ratioP1;P1;durP2;ratioP2;P2;SDS_P1;SDS_P2;PMS_P1;PMS_P2;Temp;Humidity;BMP_temperature;BMP_pressure;BME280_temperature;BME280_humidity;BME280_pressure;Samples;Min_cycle;Max_cycle;Signal;HPM_P1;HPM_P2
2022/10/04 00:01:57;;;;;;;13.90;7.60;;;12.20;99.90;;;;;;4860121;29;20054;-86
2022/10/04 00:04:26;;;;;;;11.68;6.97;;;12.30;99.90;;;;;;4822627;29;20045;-86
2022/10/04 00:07:05;;;;;;;14.45;7.28;;;12.30;99.90;;;;;;4876077;29;20072;-85
2022/10/04 00:09:41;;;;;;;17.40;7.47;;;12.10;99.90;;;;;;4846685;29;20037;-85
2022/10/04 00:12:38;;;;;;;14.68;8.10;;;12.20;99.90;;;;;;4874272;29;20520;-86
2022/10/04 00:15:20;;;;;;;14.98;7.72;;;12.20;99.90;;;;;;4844036;29;20041;-86
2022/10/04 00:18:10;;;;;;;12.90;7.22;;;12.10;99.90;;;;;;4851699;29;20108;-86
2022/10/04 00:20:54;;;;;;;16.10;7.55;;;12.10;99.90;;;;;;4851402;29;20487;-85
2022/10/04 00:23:23;;;;;;;17.77;7.93;;;12.20;99.90;;;;;;4860940;29;20478;-86
2022/10/04 00:26:09;;;;;;;18.08;8.25;;;12.30;99.90;;;;;;4859912;29;20051;-87
2022/10/04 00:28:38;;;;;;;15.45;7.95;;;12.20;99.90;;;;;;4845869;29;20056;-86
2022/10/04 00:31:15;;;;;;;20.35;8.50;;;12.20;99.90;;;;;;4867961;29;20540;-86
2022/10/04 00:33:48;;;;;;;17.58;7.55;;;12.00;99.90;;;;;;4860031;29;20084;-86
2022/10/04 00:36:23;;;;;;;13.98;7.60;;;12.20;99.90;;;;;;4851947;29;20049;-85
2022/10/04 00:39:03;;;;;;;15.93;7.80;;;12.00;99.90;;;;;;4875570;29;20460;-86
2022/10/04 00:41:47;;;;;;;12.93;7.47;;;12.20;99.90;;;;;;4826456;29;20509;-86
2022/10/04 00:44:16;;;;;;;14.57;7.60;;;12.00;99.90;;;;;;4874250;29;20033;-85
2022/10/04 00:46:43;;;;;;;16.15;8.68;;;12.00;99.90;;;;;;4847763;29;20049;-85
2022/10/04 00:49:12;;;;;;;16.75;8.60;;;12.00;99.90;;;;;;4848120;29;20049;-86
2022/10/04 00:51:42;;;;;;;15.07;8.65;;;11.90;99.90;;;;;;4857526;29;20081;-86
2022/10/04 00:54:33;;;;;;;15.18;8.65;;;12.00;99.90;;;;;;4859487;29;20050;-86
2022/10/04 00:57:09;;;;;;;14.27;8.27;;;12.00;99.90;;;;;;4858897;29;20061;-86
2022/10/04 00:59:45;;;;;;;18.05;9.45;;;11.90;99.90;;;;;;4846080;29;20050;-86
2022/10/04 01:02:20;;;;;;;19.95;9.00;;;12.00;99.90;;;;;;4875084;29;20409;-86
2022/10/04 01:04:54;;;;;;;16.25;8.63;;;11.90;99.90;;;;;;4827589;29;20051;-86
2022/10/04 01:07:36;;;;;;;18.08;8.90;;;11.90;99.90;;;;;;4875168;29;20154;-86
2022/10/04 01:10:10;;;;;;;22.45;9.35;;;11.90;99.90;;;;;;4843981;29;20042;-86
2022/10/04 01:12:48;;;;;;;18.08;9.38;;;11.90;99.90;;;;;;4877213;29;20406;-86
2022/10/04 01:15:24;;;;;;;17.50;10.40;;;11.80;99.90;;;;;;4860798;29;20136;-85
2022/10/04 01:18:07;;;;;;;17.10;10.15;;;11.80;99.90;;;;;;4877490;29;20403;-86
2022/10/04 01:20:53;;;;;;;17.40;9.73;;;12.00;99.90;;;;;;4852968;29;20049;-86
2022/10/04 01:23:33;;;;;;;13.98;9.38;;;11.80;99.90;;;;;;4844119;29;20037;-86
2022/10/04 01:26:00;;;;;;;23.60;10.77;;;11.80;99.90;;;;;;4861607;29;20430;-85
2022/10/04 01:28:26;;;;;;;24.63;10.90;;;11.80;99.90;;;;;;4844976;29;20093;-86
2022/10/04 01:30:53;;;;;;;17.90;10.82;;;12.00;99.90;;;;;;4861065;29;20045;-86
2022/10/04 01:33:18;;;;;;;17.60;9.85;;;11.80;99.90;;;;;;4840756;29;20046;-86
2022/10/04 01:35:45;;;;;;;20.33;11.27;;;12.00;99.90;;;;;;4861559;29;20037;-86
2022/10/04 01:38:13;;;;;;;20.40;11.07;;;12.00;99.90;;;;;;4843955;29;20041;-86
2022/10/04 01:40:50;;;;;;;15.60;9.85;;;11.90;99.90;;;;;;4844404;29;20042;-86
2022/10/04 01:43:23;;;;;;;25.23;10.30;;;11.90;99.90;;;;;;4875334;29;20088;-86
2022/10/04 01:45:59;;;;;;;23.95;11.65;;;11.90;99.90;;;;;;4853980;29;20077;-87
2022/10/04 01:48:32;;;;;;;20.10;10.05;;;11.80;99.90;;;;;;4851777;29;20067;-86
2022/10/04 01:51:07;;;;;;;17.83;11.23;;;12.00;99.90;;;;;;4847724;29;20037;-86
2022/10/04 01:53:43;;;;;;;15.82;10.07;;;11.90;99.90;;;;;;4837824;29;20542;-86
2022/10/04 01:56:18;;;;;;;24.05;10.70;;;11.80;99.90;;;;;;4877992;29;20080;-86
2022/10/04 01:58:51;;;;;;;18.13;10.68;;;12.00;99.90;;;;;;4844770;29;20057;-87
2022/10/04 02:01:23;;;;;;;21.33;10.18;;;11.90;99.90;;;;;;4861097;29;20317;-87
2022/10/04 02:04:29;;;;;;;18.23;9.50;;;12.00;99.90;;;;;;4852266;29;20189;-86
2022/10/04 02:06:58;;;;;;;19.90;9.77;;;12.00;99.90;;;;;;4816379;29;20442;-86
2022/10/04 02:09:36;;;;;;;18.15;9.60;;;11.80;99.90;;;;;;4866523;29;20045;-87
2022/10/04 02:12:02;;;;;;;16.13;9.35;;;12.00;99.90;;;;;;4860728;29;20042;-86
2022/10/04 02:14:33;;;;;;;20.38;10.30;;;11.90;99.90;;;;;;4847081;29;20057;-86
2022/10/04 02:17:02;;;;;;;18.17;9.63;;;11.90;99.90;;;;;;4865024;29;20105;-86
2022/10/04 02:19:35;;;;;;;18.00;9.75;;;11.70;99.90;;;;;;4880198;29;20050;-86
2022/10/04 02:22:04;;;;;;;17.27;9.40;;;11.80;99.90;;;;;;4847620;29;20108;-86
2022/10/04 02:24:35;;;;;;;20.23;10.32;;;11.70;99.90;;;;;;4850224;29;20439;-86
2022/10/04 02:27:01;;;;;;;18.17;9.45;;;11.70;99.90;;;;;;4832462;29;20114;-87
2022/10/04 02:29:27;;;;;;;18.38;9.65;;;11.70;99.90;;;;;;4839001;29;20075;-87
2022/10/04 02:34:39;;;;;;;21.25;9.30;;;11.60;99.90;;;;;;4865637;29;20053;-86
2022/10/04 02:37:07;;;;;;;17.98;9.48;;;11.60;99.90;;;;;;4878356;29;20037;-86
2022/10/04 02:40:11;;;;;;;14.93;9.05;;;11.40;99.90;;;;;;4881235;29;20145;-86
2022/10/04 02:42:45;;;;;;;17.58;9.10;;;11.30;99.90;;;;;;4833626;29;20132;-87
2022/10/04 02:45:51;;;;;;;16.75;9.43;;;11.30;99.90;;;;;;4877585;29;20979;-86
2022/10/04 02:48:38;;;;;;;17.27;9.45;;;11.30;99.90;;;;;;4880344;29;20041;-86
2022/10/04 02:51:14;;;;;;;18.25;9.00;;;11.30;99.90;;;;;;4852131;29;20271;-87
2022/10/04 02:53:53;;;;;;;16.95;9.77;;;11.30;99.90;;;;;;4878744;29;20045;-86
2022/10/04 02:56:24;;;;;;;18.02;8.95;;;11.20;99.90;;;;;;4878071;29;20405;-86
2022/10/04 02:58:50;;;;;;;18.35;8.93;;;11.20;99.90;;;;;;4859984;29;20069;-86
2022/10/04 03:01:25;;;;;;;16.80;9.45;;;11.20;99.90;;;;;;4876868;29;20068;-86
2022/10/04 03:03:53;;;;;;;22.17;9.63;;;11.30;99.90;;;;;;4879532;29;20051;-86
2022/10/04 03:06:21;;;;;;;15.57;9.00;;;11.20;99.90;;;;;;4861912;29;20049;-86
2022/10/04 03:08:51;;;;;;;21.70;10.20;;;11.20;99.90;;;;;;4881098;29;20068;-86
2022/10/04 03:11:21;;;;;;;18.02;9.68;;;11.20;99.90;;;;;;4848300;29;20139;-86
2022/10/04 03:13:53;;;;;;;20.88;9.80;;;11.10;99.90;;;;;;4877687;29;20417;-86
2022/10/04 03:16:20;;;;;;;20.08;10.40;;;11.10;99.90;;;;;;4849669;29;20074;-86
2022/10/04 03:18:48;;;;;;;16.70;9.55;;;11.20;99.90;;;;;;4855381;29;20073;-86
2022/10/04 03:21:19;;;;;;;19.15;10.25;;;11.10;99.90;;;;;;4871003;29;20049;-86
2022/10/04 03:23:47;;;;;;;20.10;9.77;;;11.20;99.90;;;;;;4851053;29;20109;-86
2022/10/04 03:26:37;;;;;;;16.27;9.57;;;11.10;99.90;;;;;;4879057;29;20034;-86
2022/10/04 03:29:10;;;;;;;15.43;10.32;;;11.20;99.90;;;;;;4854609;29;20073;-87
2022/10/04 03:31:42;;;;;;;21.25;10.32;;;11.10;99.90;;;;;;4868618;29;20053;-86
2022/10/04 03:34:32;;;;;;;21.48;11.10;;;11.10;99.90;;;;;;4864368;29;20128;-87
2022/10/04 03:36:59;;;;;;;17.13;10.30;;;11.20;99.90;;;;;;4879094;29;20045;-87
2022/10/04 03:39:31;;;;;;;24.08;10.55;;;11.00;99.90;;;;;;4878188;29;20080;-86
2022/10/04 03:41:58;;;;;;;19.83;11.07;;;11.10;99.90;;;;;;4860822;29;21090;-87
2022/10/04 03:44:24;;;;;;;21.90;11.40;;;11.10;99.90;;;;;;4866812;29;20072;-86
2022/10/04 03:46:50;;;;;;;22.35;11.20;;;11.10;99.90;;;;;;4856638;29;20042;-86
2022/10/04 03:49:25;;;;;;;18.25;11.23;;;10.90;99.90;;;;;;4879342;29;20401;-86
2022/10/04 03:51:51;;;;;;;22.60;11.15;;;10.90;99.90;;;;;;4878735;29;20072;-86
2022/10/04 03:54:22;;;;;;;20.13;11.32;;;11.00;99.90;;;;;;4878086;29;20047;-87
2022/10/04 03:56:51;;;;;;;20.08;11.55;;;11.00;99.90;;;;;;4879012;29;20638;-87
2022/10/04 03:59:17;;;;;;;20.02;11.43;;;11.00;99.90;;;;;;4860303;29;20049;-86
2022/10/04 04:01:53;;;;;;;22.27;11.65;;;10.80;99.90;;;;;;4852665;29;20602;-87
2022/10/04 04:04:30;;;;;;;22.90;11.38;;;11.00;99.90;;;;;;4867935;29;20098;-86
2022/10/04 04:07:06;;;;;;;22.10;11.82;;;10.80;99.90;;;;;;4852199;29;20072;-87
2022/10/04 04:09:44;;;;;;;21.98;11.85;;;11.00;99.90;;;;;;4887657;29;20092;-87
2022/10/04 04:12:18;;;;;;;23.98;12.90;;;10.90;99.90;;;;;;4870976;29;20548;-87
2022/10/04 04:14:48;;;;;;;25.45;12.27;;;10.90;99.90;;;;;;4871704;29;20390;-86
2022/10/04 04:17:26;;;;;;;27.58;12.68;;;10.80;99.90;;;;;;4864296;29;20037;-86
2022/10/04 04:20:01;;;;;;;23.70;12.00;;;10.90;99.90;;;;;;4860897;29;20049;-86
2022/10/04 04:22:30;;;;;;;27.40;12.75;;;10.90;99.90;;;;;;4871975;29;20300;-87
2022/10/04 04:25:12;;;;;;;22.60;12.35;;;10.90;99.90;;;;;;4843056;29;20041;-88
2022/10/04 04:27:40;;;;;;;23.02;13.02;;;10.80;99.90;;;;;;4885874;29;20044;-88
2022/10/04 04:30:07;;;;;;;18.23;11.95;;;10.80;99.90;;;;;;4863480;29;20067;-88
2022/10/04 04:32:41;;;;;;;24.15;13.32;;;10.90;99.90;;;;;;4856135;29;20141;-87
2022/10/04 04:35:28;;;;;;;20.90;12.90;;;10.70;99.90;;;;;;4850911;29;20059;-87
2022/10/04 04:38:20;;;;;;;23.63;13.27;;;10.70;99.90;;;;;;4886910;29;20075;-88
2022/10/04 04:40:46;;;;;;;22.77;13.57;;;10.80;99.90;;;;;;4855981;29;20128;-87
2022/10/04 04:43:26;;;;;;;19.48;12.80;;;10.70;99.90;;;;;;4882147;29;20041;-87
2022/10/04 04:45:53;;;;;;;24.42;13.93;;;10.80;99.90;;;;;;4888665;29;20047;-87
2022/10/04 04:48:21;;;;;;;20.10;13.70;;;10.70;99.90;;;;;;4853205;29;20045;-87
2022/10/04 04:50:52;;;;;;;22.42;13.55;;;10.70;99.90;;;;;;4869356;29;20374;-86
2022/10/04 04:53:23;;;;;;;22.75;14.10;;;10.60;99.90;;;;;;4866149;29;20591;-87
2022/10/04 04:55:56;;;;;;;22.10;13.52;;;10.70;99.90;;;;;;4896669;29;20535;-87
2022/10/04 04:58:31;;;;;;;25.20;13.70;;;10.60;99.90;;;;;;4876135;29;20069;-87
2022/10/04 05:01:07;;;;;;;;;;;10.70;99.90;;;;;;4856711;29;20044;-87
2022/10/04 05:03:33;;;;;;;22.00;14.05;;;10.60;99.90;;;;;;4865229;29;19920;-87
2022/10/04 05:06:03;;;;;;;24.48;15.13;;;10.70;99.90;;;;;;4897912;29;20485;-87
2022/10/04 05:08:32;;;;;;;22.15;14.35;;;10.60;99.90;;;;;;4871286;29;20138;-87
2022/10/04 05:11:07;;;;;;;24.77;14.32;;;10.60;99.90;;;;;;4841536;29;20049;-87
2022/10/04 05:13:53;;;;;;;28.15;14.82;;;10.60;99.90;;;;;;4881947;29;20152;-86
2022/10/04 05:16:25;;;;;;;25.83;14.70;;;10.60;99.90;;;;;;4865262;29;20449;-86
2022/10/04 05:19:02;;;;;;;27.75;15.45;;;10.60;99.90;;;;;;4882712;29;20052;-87
2022/10/04 05:21:29;;;;;;;26.17;15.20;;;10.50;99.90;;;;;;4858048;29;20152;-87
2022/10/04 05:23:58;;;;;;;24.08;15.13;;;10.60;99.90;;;;;;4867259;29;20044;-87
2022/10/04 05:26:29;;;;;;;22.60;15.48;;;10.50;99.90;;;;;;4899716;29;20369;-87
2022/10/04 05:29:00;;;;;;;23.98;14.60;;;10.50;99.90;;;;;;4887586;29;20124;-88
2022/10/04 05:31:54;;;;;;;21.58;14.43;;;10.40;99.90;;;;;;4873300;29;20040;-87
2022/10/04 05:34:26;;;;;;;21.02;14.20;;;10.50;99.90;;;;;;4859144;29;20048;-87
2022/10/04 05:36:52;;;;;;;25.30;15.48;;;10.50;99.90;;;;;;4883875;29;20136;-87
2022/10/04 05:39:24;;;;;;;35.92;15.88;;;10.40;99.90;;;;;;4855374;29;20639;-88
2022/10/04 05:42:19;;;;;;;27.85;15.95;;;10.40;99.90;;;;;;4856872;29;20495;-88
2022/10/04 05:44:53;;;;;;;27.60;16.15;;;10.30;99.90;;;;;;4839993;29;20123;-88
2022/10/04 05:47:30;;;;;;;29.90;16.58;;;10.30;99.90;;;;;;4871580;29;20379;-87
2022/10/04 05:49:59;;;;;;;29.17;17.48;;;10.30;99.90;;;;;;4857638;29;20041;-87
2022/10/04 05:52:37;;;;;;;28.77;16.45;;;10.40;99.90;;;;;;4846111;29;20037;-87
2022/10/04 05:55:35;;;;;;;28.60;16.27;;;10.30;99.90;;;;;;4894297;29;20068;-87
2022/10/04 05:58:18;;;;;;;28.17;15.48;;;10.30;99.90;;;;;;4856708;29;20128;-87
2022/10/04 06:00:52;;;;;;;26.70;17.08;;;10.30;99.90;;;;;;4881289;29;20052;-87
2022/10/04 06:03:27;;;;;;;29.13;16.75;;;10.30;99.90;;;;;;4855336;29;20048;-87
2022/10/04 06:05:58;;;;;;;39.45;17.00;;;10.30;99.90;;;;;;4857616;29;20045;-87
2022/10/04 06:08:49;;;;;;;24.15;16.17;;;10.40;99.90;;;;;;4889348;29;20409;-87
2022/10/04 06:11:20;;;;;;;27.08;17.35;;;10.20;99.90;;;;;;4868668;29;20080;-87
2022/10/04 06:14:14;;;;;;;26.20;16.77;;;10.40;99.90;;;;;;4858077;29;20643;-87
2022/10/04 06:17:42;;;;;;;25.42;15.88;;;10.40;99.90;;;;;;4868306;29;20040;-87
2022/10/04 06:20:29;;;;;;;27.13;16.45;;;10.30;99.90;;;;;;4822679;29;20280;-88
2022/10/04 06:23:04;;;;;;;25.98;16.60;;;10.40;99.90;;;;;;4869281;29;20485;-88
2022/10/04 06:25:37;;;;;;;27.73;17.65;;;10.50;99.90;;;;;;4853413;29;20060;-87
2022/10/04 06:28:44;;;;;;;27.95;16.77;;;10.70;99.90;;;;;;4857402;29;20048;-87
2022/10/04 06:31:43;;;;;;;27.52;16.98;;;10.70;99.90;;;;;;4839341;29;20052;-87
2022/10/04 06:34:50;;;;;;;26.88;17.30;;;10.80;99.90;;;;;;4834410;29;20467;-87
2022/10/04 06:37:41;;;;;;;31.00;17.15;;;10.90;99.90;;;;;;4844061;29;20112;-87
2022/10/04 06:40:25;;;;;;;26.15;16.77;;;10.90;99.90;;;;;;4887494;29;20103;-87
2022/10/04 06:43:19;;;;;;;28.30;16.92;;;11.10;99.90;;;;;;4865339;29;20379;-87
2022/10/04 06:46:04;;;;;;;24.90;16.38;;;11.20;99.90;;;;;;4867614;29;20092;-87
2022/10/04 06:48:41;;;;;;;29.23;15.85;;;11.20;99.90;;;;;;4849246;29;20136;-87
2022/10/04 06:51:26;;;;;;;28.33;16.27;;;11.30;99.90;;;;;;4850078;29;20136;-87
2022/10/04 06:54:20;;;;;;;25.60;15.73;;;11.30;99.90;;;;;;4851239;29;20091;-88
2022/10/04 06:57:13;;;;;;;29.10;16.98;;;11.50;99.90;;;;;;4852480;29;20048;-88
2022/10/04 07:00:11;;;;;;;29.27;15.93;;;11.50;99.90;;;;;;4882794;29;20057;-87
2022/10/04 07:03:02;;;;;;;22.77;15.18;;;11.60;99.90;;;;;;4849110;29;20132;-87
2022/10/04 07:05:56;;;;;;;25.13;15.15;;;11.50;99.90;;;;;;4836744;29;20053;-87
2022/10/04 07:08:50;;;;;;;23.13;14.30;;;11.50;99.90;;;;;;4867962;29;20423;-87
2022/10/04 07:11:34;;;;;;;23.75;15.02;;;11.50;99.90;;;;;;4862289;29;20176;-88
2022/10/04 07:14:05;;;;;;;23.20;15.10;;;11.50;99.90;;;;;;4855046;29;20401;-87
2022/10/04 07:17:06;;;;;;;25.40;14.43;;;11.40;99.90;;;;;;4851097;29;20120;-87
2022/10/04 07:19:45;;;;;;;28.48;14.93;;;11.50;99.90;;;;;;4849497;29;20053;-88
2022/10/04 07:22:32;;;;;;;23.92;15.20;;;11.70;99.90;;;;;;4881446;29;20052;-87
2022/10/04 07:25:21;;;;;;;22.77;14.57;;;11.80;99.90;;;;;;4866445;29;20100;-87
2022/10/04 07:31:02;;;;;;;20.98;13.77;;;12.10;99.90;;;;;;4886731;29;20040;-87
2022/10/04 07:33:33;;;;;;;21.08;14.98;;;12.20;99.90;;;;;;4897474;29;20045;-87
2022/10/04 07:36:23;;;;;;;20.60;14.10;;;12.10;99.90;;;;;;4856120;29;20055;-87
2022/10/04 07:39:06;;;;;;;26.40;14.77;;;12.20;99.90;;;;;;4857328;29;20053;-88
2022/10/04 07:41:56;;;;;;;21.40;14.25;;;12.40;99.90;;;;;;4864754;29;20049;-87
2022/10/04 07:44:38;;;;;;;20.75;14.45;;;12.40;99.90;;;;;;4882191;29;20053;-88
2022/10/04 07:47:13;;;;;;;19.50;13.80;;;12.80;99.90;;;;;;4840741;29;20053;-88
2022/10/04 07:49:40;;;;;;;19.23;14.23;;;13.10;99.90;;;;;;4834561;29;20497;-87
2022/10/04 07:52:36;;;;;;;24.70;14.55;;;13.30;99.90;;;;;;4857206;29;20565;-88
2022/10/04 07:55:14;;;;;;;20.23;12.93;;;13.40;99.90;;;;;;4856842;29;20079;-88
2022/10/04 07:58:09;;;;;;;19.27;13.25;;;13.50;99.90;;;;;;4860342;29;20309;-87
2022/10/04 08:01:12;;;;;;;17.13;12.85;;;13.40;99.90;;;;;;4852010;29;20466;-88
2022/10/04 08:04:00;;;;;;;23.70;13.65;;;13.60;99.90;;;;;;4830165;29;20109;-87
2022/10/04 08:06:32;;;;;;;17.60;12.15;;;13.50;99.90;;;;;;4853021;29;20080;-87
2022/10/04 08:09:28;;;;;;;18.63;12.40;;;13.30;99.90;;;;;;4868155;29;20067;-87
2022/10/04 08:12:06;;;;;;;21.13;12.43;;;13.30;99.90;;;;;;4860927;29;20241;-87
2022/10/04 08:14:55;;;;;;;19.20;13.25;;;13.10;99.90;;;;;;4844256;29;20050;-88
2022/10/04 08:17:45;;;;;;;17.60;12.18;;;13.20;99.90;;;;;;4864527;29;20489;-86
2022/10/04 08:20:42;;;;;;;22.77;12.32;;;13.00;99.90;;;;;;4853619;29;20029;-88
2022/10/04 08:24:11;;;;;;;17.35;12.07;;;13.00;99.90;;;;;;4882050;29;20168;-87
2022/10/04 08:26:45;;;;;;;23.83;13.15;;;13.00;99.90;;;;;;4844383;29;20498;-86
2022/10/04 08:32:26;;;;;;;19.40;12.85;;;13.40;99.90;;;;;;4854890;29;20060;-87
2022/10/04 08:35:20;;;;;;;22.58;13.45;;;13.30;99.90;;;;;;4850649;29;20519;-88
2022/10/04 08:38:11;;;;;;;17.27;12.52;;;13.50;99.90;;;;;;4868467;29;20071;-87
2022/10/04 08:41:05;;;;;;;19.17;11.20;;;13.60;99.90;;;;;;4857862;29;20476;-87
2022/10/04 08:44:06;;;;;;;19.08;12.07;;;13.80;99.90;;;;;;4856342;29;20048;-87
2022/10/04 08:46:51;;;;;;;16.77;11.00;;;14.00;99.90;;;;;;4854414;29;20040;-87
2022/10/04 08:49:38;;;;;;;17.13;10.52;;;14.20;99.90;;;;;;4880763;29;20056;-87
2022/10/04 08:52:29;;;;;;;17.13;9.38;;;14.10;99.90;;;;;;4857506;29;20050;-88
2022/10/04 08:55:33;;;;;;;19.15;9.10;;;14.20;99.90;;;;;;4881699;29;20046;-87
2022/10/04 08:58:22;;;;;;;12.98;8.57;;;14.30;99.90;;;;;;4882339;29;20045;-87
2022/10/04 09:01:00;;;;;;;13.80;8.18;;;14.30;99.90;;;;;;4886782;29;20049;-87
2022/10/04 09:03:41;;;;;;;12.57;7.93;;;14.40;99.90;;;;;;4899968;29;20484;-87
2022/10/04 09:06:26;;;;;;;15.15;8.75;;;14.40;99.90;;;;;;4876962;29;20040;-87
2022/10/04 09:09:11;;;;;;;14.75;8.23;;;14.50;99.90;;;;;;4873257;29;20073;-86
2022/10/04 09:12:03;;;;;;;15.38;7.80;;;14.50;99.90;;;;;;4866942;29;20361;-88
2022/10/04 09:15:12;;;;;;;15.18;8.05;;;14.60;99.90;;;;;;4860627;29;20127;-87
2022/10/04 09:17:45;;;;;;;15.00;7.53;;;14.60;99.90;;;;;;4876473;29;20052;-87
2022/10/04 09:20:20;;;;;;;13.27;7.13;;;14.80;99.90;;;;;;4874646;29;20101;-86
2022/10/04 09:23:39;;;;;;;13.55;7.20;;;14.90;99.90;;;;;;4877663;29;20041;-87
2022/10/04 09:26:31;;;;;;;11.00;6.97;;;14.90;99.90;;;;;;4833591;29;20089;-87
2022/10/04 09:29:22;;;;;;;13.57;7.50;;;15.00;99.90;;;;;;4871398;29;20056;-87
2022/10/04 09:32:06;;;;;;;9.68;6.70;;;15.00;99.90;;;;;;4870442;29;20426;-87
2022/10/04 09:34:45;;;;;;;11.73;6.55;;;15.10;99.90;;;;;;4867456;29;20613;-88
2022/10/04 09:37:16;;;;;;;12.45;6.88;;;15.10;99.90;;;;;;4869734;29;20051;-87
2022/10/04 09:39:54;;;;;;;12.38;7.18;;;15.20;99.90;;;;;;4865379;29;20131;-86
2022/10/04 09:42:23;;;;;;;13.57;7.05;;;15.20;99.90;;;;;;4867520;29;20048;-87
2022/10/04 09:45:23;;;;;;;12.77;6.55;;;15.40;99.90;;;;;;4882764;29;20401;-88
2022/10/04 09:47:55;;;;;;;11.35;6.82;;;15.40;99.90;;;;;;4882958;29;20048;-86
2022/10/04 09:50:40;;;;;;;12.88;6.63;;;15.50;99.90;;;;;;4883149;29;20563;-86
2022/10/04 09:53:43;;;;;;;10.20;6.22;;;15.50;99.90;;;;;;4881852;29;20466;-87
2022/10/04 09:56:31;;;;;;;9.10;6.47;;;15.80;99.90;;;;;;4870137;29;20051;-87
2022/10/04 09:59:12;;;;;;;11.82;6.68;;;15.70;99.90;;;;;;4846978;29;20420;-86
2022/10/04 10:02:17;;;;;;;11.02;6.38;;;15.80;99.90;;;;;;4881096;29;20426;-87
2022/10/04 10:05:20;;;;;;;10.95;6.28;;;15.90;99.90;;;;;;4883617;29;20060;-87
2022/10/04 10:08:22;;;;;;;11.10;6.22;;;15.90;1.00;;;;;;4863769;29;20565;-87
2022/10/04 10:14:20;;;;;;;10.55;6.53;;;16.10;1.00;;;;;;4881934;29;20656;-87
2022/10/04 10:17:00;;;;;;;11.30;6.68;;;16.20;1.00;;;;;;4849309;29;20060;-88
2022/10/04 10:19:56;;;;;;;10.00;5.85;;;16.30;99.90;;;;;;4900262;29;20547;-86
2022/10/04 10:22:45;;;;;;;11.85;6.45;;;16.20;1.00;;;;;;4867949;29;20516;-86
2022/10/04 10:25:19;;;;;;;13.50;6.60;;;16.40;99.90;;;;;;4838357;29;20052;-88
2022/10/04 10:28:24;;;;;;;8.80;6.10;;;16.40;81.50;;;;;;4884500;29;20040;-86
2022/10/04 10:31:23;;;;;;;10.23;5.80;;;16.50;99.90;;;;;;4880876;29;20180;-87
2022/10/04 10:34:26;;;;;;;11.10;5.85;;;16.60;99.90;;;;;;4886847;29;20588;-86
2022/10/04 10:37:15;;;;;;;10.88;6.05;;;16.60;99.90;;;;;;4861913;29;20063;-86
2022/10/04 10:40:11;;;;;;;7.80;5.20;;;16.70;89.00;;;;;;4859493;29;20100;-87
2022/10/04 10:42:46;;;;;;;7.70;5.10;;;16.70;99.90;;;;;;4896577;29;20040;-87
2022/10/04 10:45:18;;;;;;;;;;;16.70;1.00;;;;;;4852462;29;20562;-86
2022/10/04 10:47:50;;;;;;;8.63;5.15;;;16.70;99.90;;;;;;4882580;29;19926;-86
2022/10/04 10:50:15;;;;;;;7.57;5.10;;;16.80;67.50;;;;;;4879523;29;20044;-86
2022/10/04 10:53:10;;;;;;;10.88;5.72;;;16.90;99.90;;;;;;4885253;29;20040;-87
2022/10/04 10:55:57;;;;;;;9.75;5.10;;;17.10;94.10;;;;;;4866908;29;20320;-87
2022/10/04 10:58:50;;;;;;;13.30;5.40;;;16.90;99.90;;;;;;4884527;29;20056;-86
2022/10/04 11:01:45;;;;;;;9.48;4.88;;;17.20;1.00;;;;;;4872682;29;20053;-86
2022/10/04 11:04:29;;;;;;;7.78;4.85;;;17.20;99.90;;;;;;4882701;29;20422;-87
2022/10/04 11:07:42;;;;;;;9.15;4.70;;;17.40;99.90;;;;;;4895450;29;20045;-87
2022/10/04 11:10:58;;;;;;;9.70;4.97;;;17.30;99.90;;;;;;4888085;29;20429;-87
2022/10/04 11:14:10;;;;;;;9.45;5.43;;;17.30;1.00;;;;;;4865772;29;20479;-86
2022/10/04 11:16:56;;;;;;;10.52;5.05;;;17.40;99.90;;;;;;4847737;29;20057;-86
2022/10/04 11:19:28;;;;;;;8.68;4.95;;;17.60;99.90;;;;;;4868857;29;20109;-86
2022/10/04 11:22:41;;;;;;;8.05;4.82;;;17.70;99.90;;;;;;4880823;29;20507;-86
2022/10/04 11:25:06;;;;;;;12.35;6.22;;;17.70;1.00;;;;;;4869186;29;20143;-86
2022/10/04 11:27:44;;;;;;;7.25;5.13;;;17.70;99.90;;;;;;4898298;29;20154;-87
2022/10/04 11:30:23;;;;;;;13.75;5.85;;;18.00;99.90;;;;;;4867724;29;20053;-87
2022/10/04 11:33:17;;;;;;;10.48;5.10;;;17.90;99.90;;;;;;4883858;29;20095;-87
2022/10/04 11:36:06;;;;;;;7.57;4.78;;;18.10;99.90;;;;;;4881995;29;20148;-86
2022/10/04 11:39:01;;;;;;;6.63;4.05;;;18.30;99.90;;;;;;4896082;29;20514;-86
2022/10/04 11:41:47;;;;;;;9.05;4.47;;;18.40;99.90;;;;;;4868534;29;20052;-87
2022/10/04 11:44:40;;;;;;;7.95;4.70;;;18.40;99.90;;;;;;4865872;29;20049;-86
2022/10/04 11:47:22;;;;;;;11.15;5.00;;;18.30;99.90;;;;;;4881853;29;20056;-87
2022/10/04 11:50:22;;;;;;;10.07;5.43;;;18.20;99.90;;;;;;4897904;29;20048;-87
2022/10/04 11:53:02;;;;;;;9.98;5.45;;;18.10;99.90;;;;;;4869117;29;20055;-87
2022/10/04 11:55:52;;;;;;;7.78;4.88;;;18.10;29.70;;;;;;4883729;29;20151;-87
2022/10/04 11:58:37;;;;;;;8.73;4.68;;;18.10;1.00;;;;;;4870659;29;20573;-87
2022/10/04 12:01:30;;;;;;;8.57;4.53;;;18.30;99.90;;;;;;4865236;29;20053;-87
2022/10/04 12:04:20;;;;;;;7.45;4.50;;;18.60;99.90;;;;;;4875910;29;20241;-86
2022/10/04 12:07:01;;;;;;;7.13;4.30;;;18.90;99.90;;;;;;4866389;29;20068;-87
2022/10/04 12:09:40;;;;;;;8.00;4.10;;;18.40;99.90;;;;;;4881312;29;20060;-86
2022/10/04 12:15:19;;;;;;;7.47;4.53;;;18.70;99.90;;;;;;4879707;29;20613;-86
2022/10/04 12:18:10;;;;;;;8.00;4.57;;;18.70;1.00;;;;;;4880425;29;20116;-86
2022/10/04 12:20:56;;;;;;;7.47;4.50;;;19.10;1.00;;;;;;4849987;29;20044;-86
2022/10/04 12:23:40;;;;;;;8.57;4.35;;;18.90;99.90;;;;;;4880923;29;20083;-87
2022/10/04 12:26:46;;;;;;;9.20;4.68;;;19.10;1.00;;;;;;4872073;29;20059;-87
2022/10/04 12:29:26;;;;;;;7.40;4.65;;;19.20;1.00;;;;;;4851959;29;20087;-86
2022/10/04 12:32:30;;;;;;;6.78;4.13;;;19.20;99.90;;;;;;4868731;29;20124;-86
2022/10/04 12:35:34;;;;;;;7.15;4.93;;;19.10;35.60;;;;;;4865104;29;20088;-86
2022/10/04 12:38:09;;;;;;;9.23;5.10;;;18.90;99.90;;;;;;4861300;29;20060;-86
2022/10/04 12:41:04;;;;;;;8.35;4.22;;;19.10;99.90;;;;;;4859800;29;20044;-86
2022/10/04 12:44:01;;;;;;;8.63;4.90;;;19.20;1.00;;;;;;4860266;29;20074;-87
2022/10/04 12:46:39;;;;;;;7.70;5.15;;;19.40;1.00;;;;;;4870270;29;20837;-86
2022/10/04 12:49:30;;;;;;;10.13;4.80;;;19.70;99.90;;;;;;4880819;29;20045;-87
2022/10/04 12:52:15;;;;;;;10.13;4.97;;;19.70;99.90;;;;;;4852707;29;20503;-86
2022/10/04 12:55:03;;;;;;;7.70;5.22;;;19.90;1.00;;;;;;4887990;29;20468;-87
2022/10/04 12:57:54;;;;;;;8.77;5.07;;;19.80;97.70;;;;;;4878510;29;20033;-86
2022/10/04 13:00:24;;;;;;;7.45;5.03;;;19.80;99.90;;;;;;4880753;29;20527;-86
2022/10/04 13:03:12;;;;;;;9.80;5.10;;;20.00;1.00;;;;;;4879906;29;20055;-86
2022/10/04 13:06:21;;;;;;;10.93;5.63;;;20.00;1.00;;;;;;4856625;29;20465;-87
2022/10/04 13:09:04;;;;;;;10.73;5.65;;;19.80;99.90;;;;;;4846670;29;20401;-87
2022/10/04 13:12:07;;;;;;;9.90;5.65;;;19.80;99.90;;;;;;4854302;29;20044;-86
2022/10/04 13:15:03;;;;;;;9.02;5.68;;;19.30;99.90;;;;;;4866303;29;20096;-87
2022/10/04 13:17:42;;;;;;;10.35;6.30;;;19.20;1.00;;;;;;4878874;29;20048;-87
2022/10/04 13:20:32;;;;;;;8.73;5.32;;;19.30;99.90;;;;;;4897478;29;20116;-86
2022/10/04 13:23:19;;;;;;;9.10;4.93;;;19.50;99.90;;;;;;4872034;29;20539;-86
2022/10/04 13:26:00;;;;;;;9.93;5.80;;;19.60;99.90;;;;;;4893194;29;20048;-87
2022/10/04 13:28:30;;;;;;;10.05;4.85;;;19.90;99.90;;;;;;4881759;29;20041;-87
2022/10/04 13:31:23;;;;;;;10.02;5.65;;;20.00;99.90;;;;;;4867199;29;20112;-85
2022/10/04 13:34:02;;;;;;;10.57;5.18;;;20.00;51.50;;;;;;4835918;29;20053;-86
2022/10/04 13:36:49;;;;;;;9.13;5.50;;;20.30;99.90;;;;;;4879068;29;20127;-86
2022/10/04 13:39:18;;;;;;;8.18;5.13;;;20.30;99.90;;;;;;4851209;29;20041;-86
2022/10/04 13:42:00;;;;;;;7.40;5.03;;;20.70;99.90;;;;;;4894526;29;20048;-86
2022/10/04 13:45:01;;;;;;;9.02;4.95;;;20.40;99.90;;;;;;4869775;29;20433;-87
2022/10/04 13:47:51;;;;;;;9.13;4.70;;;20.30;99.90;;;;;;4870939;29;20056;-87
2022/10/04 13:50:28;;;;;;;9.32;5.32;;;19.80;99.90;;;;;;4865783;29;20048;-86
2022/10/04 13:56:35;;;;;;;7.60;4.80;;;19.30;99.90;;;;;;4881413;29;20053;-87
2022/10/04 13:59:39;;;;;;;7.35;4.63;;;19.40;99.90;;;;;;4865381;29;20044;-86
2022/10/04 14:02:23;;;;;;;7.60;4.88;;;19.90;1.00;;;;;;4867646;29;20370;-86
2022/10/04 14:05:00;;;;;;;9.00;4.93;;;20.60;99.90;;;;;;4884126;29;20100;-86
2022/10/04 14:07:55;;;;;;;7.60;4.43;;;20.70;73.10;;;;;;4854823;29;20076;-87
2022/10/04 14:11:07;;;;;;;9.15;4.15;;;21.30;99.90;;;;;;4855361;29;20048;-86